Time;durP1;ratioP1;P1;durP2;ratioP2;P2;SDS_P1;SDS_P2;PMS_P1;PMS_P2;Temp;Humidity;BMP_temperature;BMP_pressure;BME280_temperature;BME280_humidity;BME280_pressure;Samples;Min_cycle;Max_cycle;Signal;HPM_P1;HPM_P2
2023/06/28 00:01:08;;;;;;;14.80;5.90;;;;;;;;;;4971058;28;20521;-61
2023/06/28 00:03:34;;;;;;;14.57;4.90;;;;;;;;;;4971355;28;20141;-61
2023/06/28 00:06:00;;;;;;;12.77;5.47;;;;;;;;;;4971685;28;20169;-62
2023/06/28 00:08:26;;;;;;;14.80;6.17;;;;;;;;;;4971571;28;20055;-62
2023/06/28 00:10:52;;;;;;;12.97;5.30;;;;;;;;;;4970901;28;20047;-62
2023/06/28 00:13:18;;;;;;;11.27;5.80;;;;;;;;;;4971170;28;20058;-62
2023/06/28 00:15:45;;;;;;;16.07;5.43;;;;;;;;;;4971344;28;20053;-61
2023/06/28 00:18:11;;;;;;;13.33;5.53;;;;;;;;;;4971121;28;20492;-61
2023/06/28 00:20:37;;;;;;;14.10;6.00;;;;;;;;;;4970556;28;20055;-61
2023/06/28 00:23:03;;;;;;;12.87;5.97;;;;;;;;;;4971037;28;20065;-61
2023/06/28 00:25:29;;;;;;;13.20;6.37;;;;;;;;;;4971081;28;20042;-61
2023/06/28 00:27:55;;;;;;;14.33;6.30;;;;;;;;;;4970959;28;20047;-62
2023/06/28 00:30:21;;;;;;;13.63;6.50;;;;;;;;;;4970751;28;20049;-61
2023/06/28 00:32:47;;;;;;;11.73;6.37;;;;;;;;;;4970916;28;20046;-62
2023/06/28 00:35:13;;;;;;;12.70;7.10;;;;;;;;;;4970419;28;20051;-61
2023/06/28 00:37:39;;;;;;;12.87;7.53;;;;;;;;;;4970357;28;20081;-61
2023/06/28 00:40:06;;;;;;;18.13;7.53;;;;;;;;;;4970971;28;20049;-61
2023/06/28 00:42:32;;;;;;;12.00;7.23;;;;;;;;;;4970931;28;20650;-61
2023/06/28 00:44:58;;;;;;;12.50;7.77;;;;;;;;;;4970451;28;20047;-61
2023/06/28 00:47:25;;;;;;;15.17;7.20;;;;;;;;;;4970223;28;20063;-61
2023/06/28 00:49:53;;;;;;;21.37;8.37;;;;;;;;;;4970111;28;20441;-61
2023/06/28 00:52:19;;;;;;;15.43;8.47;;;;;;;;;;4970560;28;20477;-62
2023/06/28 00:54:45;;;;;;;17.30;7.93;;;;;;;;;;4970367;28;20075;-62
2023/06/28 00:57:11;;;;;;;20.57;8.03;;;;;;;;;;4970461;28;21346;-61
2023/06/28 00:59:37;;;;;;;15.47;7.93;;;;;;;;;;4970243;28;20074;-62
2023/06/28 01:02:03;;;;;;;16.57;8.83;;;;;;;;;;4969973;28;20635;-61
2023/06/28 01:04:29;;;;;;;20.03;8.47;;;;;;;;;;4970347;28;20529;-61
2023/06/28 01:06:59;;;;;;;20.20;8.53;;;;;;;;;;4970455;28;20039;-61
2023/06/28 01:09:26;;;;;;;16.43;8.43;;;;;;;;;;4970065;28;20058;-61
2023/06/28 01:11:53;;;;;;;17.83;8.90;;;;;;;;;;4970324;28;20050;-61
2023/06/28 01:14:20;;;;;;;15.13;8.40;;;;;;;;;;4970281;28;20050;-62
2023/06/28 01:16:49;;;;;;;17.57;8.53;;;;;;;;;;4970361;28;20181;-61
2023/06/28 01:19:16;;;;;;;15.73;8.40;;;;;;;;;;4970427;28;20508;-61
2023/06/28 01:21:43;;;;;;;16.80;8.13;;;;;;;;;;4969732;28;20101;-61
2023/06/28 01:24:10;;;;;;;20.77;8.83;;;;;;;;;;4969779;28;20426;-61
2023/06/28 01:26:37;;;;;;;13.73;8.67;;;;;;;;;;4969996;28;20129;-61
2023/06/28 01:29:03;;;;;;;13.50;8.67;;;;;;;;;;4970099;28;20097;-61
2023/06/28 01:31:30;;;;;;;22.73;10.47;;;;;;;;;;4969789;28;20039;-62
2023/06/28 01:33:56;;;;;;;13.67;8.67;;;;;;;;;;4969722;28;20043;-61
2023/06/28 01:36:22;;;;;;;14.60;8.60;;;;;;;;;;4969608;28;20043;-62
2023/06/28 01:38:49;;;;;;;20.80;8.80;;;;;;;;;;4969655;28;20137;-62
2023/06/28 01:41:15;;;;;;;17.10;9.13;;;;;;;;;;4969593;28;20497;-61
2023/06/28 01:43:41;;;;;;;16.97;9.50;;;;;;;;;;4969140;28;20413;-61
2023/06/28 01:46:08;;;;;;;19.07;8.80;;;;;;;;;;4969789;28;20046;-61
2023/06/28 01:48:34;;;;;;;13.83;8.80;;;;;;;;;;4952381;28;20619;-61
2023/06/28 01:51:00;;;;;;;26.57;10.27;;;;;;;;;;4969660;28;20104;-61
2023/06/28 01:53:26;;;;;;;16.83;9.63;;;;;;;;;;4969580;28;20046;-61
2023/06/28 01:55:52;;;;;;;13.17;8.73;;;;;;;;;;4969854;28;20085;-61
2023/06/28 01:58:18;;;;;;;15.83;9.73;;;;;;;;;;4969062;28;20047;-61
2023/06/28 02:00:44;;;;;;;17.50;9.07;;;;;;;;;;4968624;28;20049;-61
2023/06/28 02:03:10;;;;;;;13.07;8.33;;;;;;;;;;4969748;28;20055;-62
2023/06/28 02:05:36;;;;;;;15.40;8.97;;;;;;;;;;4969504;28;20039;-62
2023/06/28 02:08:02;;;;;;;15.30;9.00;;;;;;;;;;4968805;28;20059;-62
2023/06/28 02:10:28;;;;;;;16.93;8.73;;;;;;;;;;4969387;28;20186;-61
2023/06/28 02:12:54;;;;;;;15.10;9.10;;;;;;;;;;4969580;28;20166;-61
2023/06/28 02:15:21;;;;;;;16.97;8.87;;;;;;;;;;4951990;28;20153;-61
2023/06/28 02:17:50;;;;;;;17.13;9.57;;;;;;;;;;4969285;28;20509;-62
2023/06/28 02:20:16;;;;;;;16.93;9.30;;;;;;;;;;4969006;28;20051;-64
2023/06/28 02:22:42;;;;;;;16.93;9.27;;;;;;;;;;4969070;28;20055;-62
2023/06/28 02:25:08;;;;;;;15.47;9.67;;;;;;;;;;4969199;28;20050;-61
2023/06/28 02:27:34;;;;;;;11.87;8.83;;;;;;;;;;4969200;28;20113;-62
2023/06/28 02:30:00;;;;;;;16.27;8.60;;;;;;;;;;4968793;28;20505;-61
2023/06/28 02:32:30;;;;;;;12.53;8.53;;;;;;;;;;4969232;28;20397;-62
2023/06/28 02:34:56;;;;;;;14.93;8.90;;;;;;;;;;4969099;28;20093;-61
2023/06/28 02:37:22;;;;;;;14.87;9.17;;;;;;;;;;4969068;28;20055;-62
2023/06/28 02:39:48;;;;;;;17.83;9.43;;;;;;;;;;4969254;28;20417;-62
2023/06/28 02:42:14;;;;;;;16.00;8.30;;;;;;;;;;4968595;28;20050;-62
2023/06/28 02:44:40;;;;;;;19.67;8.97;;;;;;;;;;4968754;28;20125;-61
2023/06/28 02:47:06;;;;;;;12.20;8.00;;;;;;;;;;4951820;28;20047;-61
2023/06/28 02:49:32;;;;;;;19.67;8.57;;;;;;;;;;4969098;28;20043;-61
2023/06/28 02:51:58;;;;;;;15.67;8.57;;;;;;;;;;4968949;28;20050;-61
2023/06/28 02:54:24;;;;;;;17.17;7.87;;;;;;;;;;4968823;28;20417;-61
2023/06/28 02:56:50;;;;;;;14.77;8.40;;;;;;;;;;4968520;28;20133;-61
2023/06/28 02:59:16;;;;;;;14.00;7.57;;;;;;;;;;4969057;28;20047;-61
2023/06/28 03:01:42;;;;;;;14.57;7.60;;;;;;;;;;4968859;28;20051;-61
2023/06/28 03:04:08;;;;;;;11.37;7.20;;;;;;;;;;4969307;28;20051;-62
2023/06/28 03:06:34;;;;;;;14.10;7.70;;;;;;;;;;4968920;28;20054;-61
2023/06/28 03:09:00;;;;;;;15.20;7.60;;;;;;;;;;4968598;28;20110;-62
2023/06/28 03:11:26;;;;;;;12.53;7.60;;;;;;;;;;4970298;28;20046;-62
2023/06/28 03:13:52;;;;;;;13.73;7.63;;;;;;;;;;4972278;28;20043;-61
2023/06/28 03:16:18;;;;;;;12.30;7.80;;;;;;;;;;4972091;28;20106;-61
2023/06/28 03:18:44;;;;;;;16.37;8.00;;;;;;;;;;4972028;28;20528;-61
2023/06/28 03:21:10;;;;;;;14.93;8.50;;;;;;;;;;4971927;28;20098;-61
2023/06/28 03:23:37;;;;;;;14.60;8.13;;;;;;;;;;4971308;28;20127;-61
2023/06/28 03:26:03;;;;;;;15.90;8.90;;;;;;;;;;4971981;28;20074;-61
2023/06/28 03:28:29;;;;;;;19.07;10.70;;;;;;;;;;4972042;28;20136;-61
2023/06/28 03:30:55;;;;;;;13.27;8.50;;;;;;;;;;4971698;28;20051;-61
2023/06/28 03:33:21;;;;;;;14.73;8.53;;;;;;;;;;4971735;28;20043;-61
2023/06/28 03:35:47;;;;;;;15.53;8.87;;;;;;;;;;4971847;28;20417;-61
2023/06/28 03:38:13;;;;;;;16.83;9.33;;;;;;;;;;4970889;28;20046;-61
2023/06/28 03:40:38;;;;;;;14.70;8.53;;;;;;;;;;4971555;28;20395;-61
2023/06/28 03:43:04;;;;;;;17.93;8.83;;;;;;;;;;4971668;28;20141;-61
2023/06/28 03:45:33;;;;;;;17.97;9.83;;;;;;;;;;4971520;28;20051;-61
2023/06/28 03:47:59;;;;;;;15.97;9.67;;;;;;;;;;4971775;28;20051;-61
2023/06/28 03:50:25;;;;;;;15.03;8.93;;;;;;;;;;4971549;28;20042;-61
2023/06/28 03:52:51;;;;;;;11.70;6.70;;;;;;;;;;4970842;28;20043;-61
2023/06/28 03:55:17;;;;;;;13.13;8.07;;;;;;;;;;4971612;28;20050;-62
2023/06/28 03:57:43;;;;;;;12.33;7.37;;;;;;;;;;4971180;28;20089;-62
2023/06/28 04:00:12;;;;;;;8.07;6.77;;;;;;;;;;4971296;28;20070;-62
2023/06/28 04:02:38;;;;;;;12.37;7.63;;;;;;;;;;4971119;28;20181;-63
2023/06/28 04:05:05;;;;;;;15.20;7.53;;;;;;;;;;4971642;28;20397;-62
2023/06/28 04:07:31;;;;;;;13.03;7.77;;;;;;;;;;4971117;28;20069;-62
2023/06/28 04:09:57;;;;;;;16.90;8.53;;;;;;;;;;4971281;28;20062;-62
2023/06/28 04:12:23;;;;;;;12.90;6.90;;;;;;;;;;4971587;28;20437;-62
2023/06/28 04:14:50;;;;;;;18.07;9.40;;;;;;;;;;4970682;28;20051;-62
2023/06/28 04:17:16;;;;;;;14.80;10.00;;;;;;;;;;4971023;28;20524;-63
2023/06/28 04:19:43;;;;;;;18.90;9.33;;;;;;;;;;4970797;28;20042;-62
2023/06/28 04:22:09;;;;;;;17.97;10.00;;;;;;;;;;4952759;28;20483;-62
2023/06/28 04:24:35;;;;;;;19.57;10.47;;;;;;;;;;4971081;28;20070;-63
2023/06/28 04:27:01;;;;;;;17.07;11.07;;;;;;;;;;4971053;28;20529;-63
2023/06/28 04:29:28;;;;;;;19.73;11.83;;;;;;;;;;4970844;28;20043;-63
2023/06/28 04:31:54;;;;;;;18.83;11.37;;;;;;;;;;4970871;28;20134;-63
2023/06/28 04:34:20;;;;;;;18.13;9.43;;;;;;;;;;4970408;28;20055;-62
2023/06/28 04:36:46;;;;;;;24.03;10.90;;;;;;;;;;4970881;28;20042;-63
2023/06/28 04:39:15;;;;;;;22.00;11.40;;;;;;;;;;4970789;28;20138;-63
2023/06/28 04:41:41;;;;;;;18.87;11.23;;;;;;;;;;4970767;28;20050;-62
2023/06/28 04:44:09;;;;;;;24.70;12.37;;;;;;;;;;4970358;28;20061;-62
2023/06/28 04:46:35;;;;;;;25.97;13.33;;;;;;;;;;4970692;28;20058;-63
2023/06/28 04:49:01;;;;;;;18.87;12.30;;;;;;;;;;4970936;28;20145;-63
2023/06/28 04:51:29;;;;;;;17.17;11.77;;;;;;;;;;4970663;28;20050;-63
2023/06/28 04:53:55;;;;;;;23.33;13.00;;;;;;;;;;4969966;28;20465;-63
2023/06/28 04:56:21;;;;;;;24.37;12.03;;;;;;;;;;4970621;28;20050;-62
2023/06/28 04:58:47;;;;;;;19.83;10.67;;;;;;;;;;4970180;28;20466;-63
2023/06/28 05:01:13;;;;;;;20.23;10.80;;;;;;;;;;4970099;28;20094;-62
2023/06/28 05:03:39;;;;;;;16.67;10.73;;;;;;;;;;4970211;28;20047;-63
2023/06/28 05:06:08;;;;;;;14.10;9.63;;;;;;;;;;4970285;28;20564;-63
2023/06/28 05:08:35;;;;;;;13.83;6.70;;;;;;;;;;4970039;28;20050;-62
2023/06/28 05:11:01;;;;;;;14.67;7.60;;;;;;;;;;4970069;28;20058;-62
2023/06/28 05:13:27;;;;;;;13.13;7.63;;;;;;;;;;4970122;28;20086;-62
2023/06/28 05:15:53;;;;;;;16.50;7.30;;;;;;;;;;4969627;28;20082;-62
2023/06/28 05:18:20;;;;;;;12.70;7.30;;;;;;;;;;4969742;28;20086;-62
2023/06/28 05:20:46;;;;;;;9.17;6.57;;;;;;;;;;4969796;28;20458;-62
2023/06/28 05:23:21;;;;;;;13.93;6.53;;;;;;;;;;4969896;28;20170;-62
2023/06/28 05:25:47;;;;;;;13.13;6.80;;;;;;;;;;4969861;28;20497;-62
2023/06/28 05:28:14;;;;;;;14.17;7.03;;;;;;;;;;4969262;28;20109;-62
2023/06/28 05:30:41;;;;;;;11.73;5.87;;;;;;;;;;4969360;28;20043;-63
2023/06/28 05:33:07;;;;;;;18.70;7.37;;;;;;;;;;4969683;28;20077;-63
2023/06/28 05:35:33;;;;;;;14.37;5.97;;;;;;;;;;4969614;28;20050;-63
2023/06/28 05:38:03;;;;;;;12.63;6.87;;;;;;;;;;4969444;28;20061;-63
2023/06/28 05:40:30;;;;;;;11.23;6.27;;;;;;;;;;4969474;28;20047;-65
2023/06/28 05:42:58;;;;;;;15.57;5.67;;;;;;;;;;4968931;28;20046;-64
2023/06/28 05:45:24;;;;;;;12.50;7.43;;;;;;;;;;4969622;28;20085;-63
2023/06/28 05:47:50;;;;;;;13.07;6.20;;;;;;;;;;4969638;28;20039;-63
2023/06/28 05:50:17;;;;;;;13.60;7.37;;;;;;;;;;4969017;28;20102;-63
2023/06/28 05:52:45;;;;;;;16.27;7.80;;;;;;;;;;4969224;28;20449;-63
2023/06/28 05:55:12;;;;;;;13.40;8.37;;;;;;;;;;4969636;28;20039;-63
2023/06/28 05:57:39;;;;;;;20.87;9.40;;;;;;;;;;4969465;28;20055;-63
2023/06/28 06:00:05;;;;;;;17.63;7.77;;;;;;;;;;4968846;28;20505;-63
2023/06/28 06:02:31;;;;;;;16.07;7.87;;;;;;;;;;4969123;28;20043;-63
2023/06/28 06:04:58;;;;;;;13.70;8.70;;;;;;;;;;4969563;28;20039;-63
2023/06/28 06:07:24;;;;;;;15.37;7.83;;;;;;;;;;4951894;28;20063;-63
2023/06/28 06:09:50;;;;;;;19.50;8.77;;;;;;;;;;4968609;28;20527;-63
2023/06/28 06:12:17;;;;;;;14.03;8.33;;;;;;;;;;4969296;28;20039;-63
2023/06/28 06:14:43;;;;;;;17.53;7.93;;;;;;;;;;4969291;28;20058;-63
2023/06/28 06:17:09;;;;;;;19.07;9.60;;;;;;;;;;4968744;28;20114;-64
2023/06/28 06:19:35;;;;;;;18.87;9.60;;;;;;;;;;4969105;28;20086;-63
2023/06/28 06:22:01;;;;;;;20.77;9.27;;;;;;;;;;4969343;28;20042;-64
2023/06/28 06:24:27;;;;;;;16.47;9.70;;;;;;;;;;4968869;28;20038;-64
2023/06/28 06:26:53;;;;;;;15.30;9.70;;;;;;;;;;4968878;28;20490;-64
2023/06/28 06:29:19;;;;;;;14.13;9.73;;;;;;;;;;4968759;28;20084;-63
2023/06/28 06:31:45;;;;;;;22.87;9.20;;;;;;;;;;4968931;28;20142;-64
2023/06/28 06:34:11;;;;;;;20.97;10.33;;;;;;;;;;4968835;28;20094;-64
2023/06/28 06:36:37;;;;;;;15.53;9.73;;;;;;;;;;4969011;28;20259;-64
2023/06/28 06:39:03;;;;;;;20.13;9.20;;;;;;;;;;4969055;28;20126;-64
2023/06/28 06:41:29;;;;;;;20.17;10.53;;;;;;;;;;4968766;28;20134;-64
2023/06/28 06:43:55;;;;;;;19.20;9.37;;;;;;;;;;4968989;28;20125;-64
2023/06/28 06:46:21;;;;;;;15.43;10.00;;;;;;;;;;4970381;28;20046;-64
2023/06/28 06:48:47;;;;;;;15.20;10.03;;;;;;;;;;4972518;28;20125;-64
2023/06/28 06:51:14;;;;;;;22.40;10.30;;;;;;;;;;4972475;28;20086;-64
2023/06/28 06:53:40;;;;;;;20.17;9.70;;;;;;;;;;4972495;28;20448;-64
2023/06/28 06:56:06;;;;;;;22.63;11.37;;;;;;;;;;4954844;28;20042;-64
2023/06/28 06:58:32;;;;;;;20.07;9.90;;;;;;;;;;4972136;28;20046;-64
2023/06/28 07:00:58;;;;;;;26.57;11.90;;;;;;;;;;4972430;28;20058;-65
2023/06/28 07:03:24;;;;;;;18.13;9.47;;;;;;;;;;4972436;28;20520;-66
2023/06/28 07:05:50;;;;;;;29.80;10.80;;;;;;;;;;4971849;28;20097;-66
2023/06/28 07:08:17;;;;;;;24.50;12.10;;;;;;;;;;4972128;28;20059;-65
2023/06/28 07:10:43;;;;;;;22.00;12.33;;;;;;;;;;4972153;28;20054;-66
2023/06/28 07:13:10;;;;;;;26.73;13.47;;;;;;;;;;4972256;28;20525;-66
2023/06/28 07:15:36;;;;;;;31.60;14.20;;;;;;;;;;4972365;28;20047;-65
2023/06/28 07:18:03;;;;;;;26.70;13.67;;;;;;;;;;4971493;28;20513;-66
2023/06/28 07:20:29;;;;;;;31.20;13.13;;;;;;;;;;4970920;28;20395;-65
2023/06/28 07:22:55;;;;;;;36.00;15.30;;;;;;;;;;4972221;28;20125;-65
2023/06/28 07:25:21;;;;;;;23.60;12.47;;;;;;;;;;4972157;28;20054;-66
2023/06/28 07:27:47;;;;;;;30.17;13.27;;;;;;;;;;4970210;28;20525;-66
2023/06/28 07:30:13;;;;;;;27.67;13.37;;;;;;;;;;4971825;28;20054;-66
2023/06/28 07:32:40;;;;;;;24.73;13.93;;;;;;;;;;4971908;28;20480;-66
2023/06/28 07:35:06;;;;;;;27.83;13.27;;;;;;;;;;4971421;28;20576;-66
2023/06/28 07:37:32;;;;;;;22.70;13.30;;;;;;;;;;4971828;28;20433;-66
2023/06/28 07:39:58;;;;;;;32.93;14.47;;;;;;;;;;4971883;28;20057;-66
2023/06/28 07:42:24;;;;;;;22.00;12.73;;;;;;;;;;4972012;28;20051;-66
2023/06/28 07:44:50;;;;;;;28.30;14.57;;;;;;;;;;4971455;28;20074;-66
2023/06/28 07:47:16;;;;;;;38.17;16.73;;;;;;;;;;4971722;28;20118;-65
2023/06/28 07:49:42;;;;;;;32.67;13.70;;;;;;;;;;4971355;28;20117;-64
2023/06/28 07:52:09;;;;;;;35.83;14.03;;;;;;;;;;4971454;28;20062;-65
2023/06/28 07:54:35;;;;;;;28.23;13.93;;;;;;;;;;4971277;28;20059;-65
2023/06/28 07:57:01;;;;;;;36.70;15.73;;;;;;;;;;4970909;28;20440;-65
2023/06/28 07:59:27;;;;;;;42.40;14.90;;;;;;;;;;4970542;28;20062;-65
2023/06/28 08:01:53;;;;;;;28.23;13.43;;;;;;;;;;4971438;28;20043;-65
2023/06/28 08:04:20;;;;;;;28.23;15.10;;;;;;;;;;4971538;28;20130;-65
2023/06/28 08:06:46;;;;;;;31.50;15.30;;;;;;;;;;4971439;28;20129;-65
2023/06/28 08:09:12;;;;;;;36.80;17.70;;;;;;;;;;4971084;28;20066;-63
2023/06/28 08:11:39;;;;;;;42.70;17.30;;;;;;;;;;4971088;28;20109;-62
2023/06/28 08:14:05;;;;;;;28.73;14.90;;;;;;;;;;4971331;28;21157;-65
2023/06/28 08:16:31;;;;;;;32.83;15.20;;;;;;;;;;4970709;28;20059;-65
2023/06/28 08:18:57;;;;;;;28.47;14.90;;;;;;;;;;4953654;28;20065;-65
2023/06/28 08:21:23;;;;;;;34.23;16.60;;;;;;;;;;4971027;28;20051;-65
2023/06/28 08:23:49;;;;;;;23.47;14.83;;;;;;;;;;4970914;28;20587;-65
2023/06/28 08:26:16;;;;;;;25.80;14.20;;;;;;;;;;4970777;28;20110;-65
2023/06/28 08:28:42;;;;;;;39.40;18.00;;;;;;;;;;4970351;28;20043;-65
2023/06/28 08:31:08;;;;;;;34.80;16.60;;;;;;;;;;4970730;28;20051;-67
2023/06/28 08:33:34;;;;;;;33.70;17.33;;;;;;;;;;4970668;28;20421;-66
2023/06/28 08:36:00;;;;;;;33.47;17.17;;;;;;;;;;4970795;28;20042;-66
2023/06/28 08:38:26;;;;;;;33.27;17.73;;;;;;;;;;4970601;28;20520;-66
2023/06/28 08:40:52;;;;;;;34.67;18.13;;;;;;;;;;4970440;28;20042;-66
2023/06/28 08:43:19;;;;;;;35.47;15.33;;;;;;;;;;4970657;28;20097;-66
2023/06/28 08:45:45;;;;;;;43.83;19.90;;;;;;;;;;4970439;28;20560;-66
2023/06/28 08:48:13;;;;;;;27.43;16.30;;;;;;;;;;4970559;28;20043;-66
2023/06/28 08:50:39;;;;;;;24.23;14.83;;;;;;;;;;4952817;28;20082;-66
2023/06/28 08:53:09;;;;;;;32.07;18.10;;;;;;;;;;4970469;28;20800;-66
2023/06/28 08:55:35;;;;;;;33.33;17.30;;;;;;;;;;4970118;28;20055;-65
2023/06/28 08:58:02;;;;;;;37.93;18.13;;;;;;;;;;4970286;28;20047;-65
2023/06/28 09:00:28;;;;;;;26.77;14.90;;;;;;;;;;4970236;28;20054;-64
2023/06/28 09:02:54;;;;;;;33.53;16.77;;;;;;;;;;4970722;28;20050;-64
2023/06/28 09:05:21;;;;;;;28.53;15.63;;;;;;;;;;4969822;28;20171;-64
2023/06/28 09:07:50;;;;;;;32.83;16.77;;;;;;;;;;4970107;28;20055;-63
2023/06/28 09:10:16;;;;;;;36.77;18.73;;;;;;;;;;4970103;28;20137;-64
2023/06/28 09:12:42;;;;;;;29.70;15.43;;;;;;;;;;4969685;28;20065;-63
2023/06/28 09:15:08;;;;;;;29.80;16.50;;;;;;;;;;4970267;28;20074;-64
2023/06/28 09:17:34;;;;;;;32.70;17.73;;;;;;;;;;4970134;28;20043;-64
2023/06/28 09:20:02;;;;;;;34.30;16.00;;;;;;;;;;4969887;28;20046;-63
2023/06/28 09:22:29;;;;;;;27.10;15.60;;;;;;;;;;4969422;28;20050;-64
2023/06/28 09:24:55;;;;;;;26.23;14.87;;;;;;;;;;4970100;28;20055;-64
2023/06/28 09:27:21;;;;;;;33.13;15.97;;;;;;;;;;4970004;28;20409;-63
2023/06/28 09:29:58;;;;;;;29.47;16.93;;;;;;;;;;4969706;28;20185;-63
2023/06/28 09:32:24;;;;;;;34.80;17.60;;;;;;;;;;4969944;28;20090;-64
2023/06/28 09:34:50;;;;;;;37.33;19.37;;;;;;;;;;4969530;28;20038;-63
2023/06/28 09:37:16;;;;;;;32.97;18.70;;;;;;;;;;4969078;28;20058;-63
2023/06/28 09:39:42;;;;;;;38.83;19.57;;;;;;;;;;4969504;28;20050;-63
2023/06/28 09:42:09;;;;;;;29.33;18.23;;;;;;;;;;4969735;28;20043;-63
2023/06/28 09:44:35;;;;;;;32.60;18.33;;;;;;;;;;4969360;28;20398;-63
2023/06/28 09:47:02;;;;;;;28.10;17.70;;;;;;;;;;4968939;28;20073;-63
2023/06/28 09:49:28;;;;;;;35.20;18.50;;;;;;;;;;4969651;28;20046;-63
2023/06/28 09:52:05;;;;;;;27.60;17.93;;;;;;;;;;4969586;28;20460;-63
2023/06/28 09:54:35;;;;;;;30.80;17.87;;;;;;;;;;4969354;28;20055;-64
2023/06/28 09:57:01;;;;;;;27.43;19.10;;;;;;;;;;4969413;28;20055;-64
2023/06/28 09:59:28;;;;;;;30.83;17.60;;;;;;;;;;4969212;28;20525;-64
2023/06/28 10:01:57;;;;;;;32.13;20.17;;;;;;;;;;4969392;28;20054;-63
2023/06/28 10:04:23;;;;;;;36.40;20.93;;;;;;;;;;4969646;28;20043;-63
2023/06/28 10:06:51;;;;;;;28.80;17.77;;;;;;;;;;4969035;28;20408;-63
2023/06/28 10:09:19;;;;;;;28.53;18.63;;;;;;;;;;4969227;28;20114;-63
2023/06/28 10:11:46;;;;;;;27.47;18.73;;;;;;;;;;4969241;28;20145;-63
2023/06/28 10:14:13;;;;;;;29.67;20.07;;;;;;;;;;4969692;28;20046;-63
2023/06/28 10:16:40;;;;;;;30.27;19.63;;;;;;;;;;4969325;28;20047;-63
2023/06/28 10:19:07;;;;;;;31.43;18.77;;;;;;;;;;4969104;28;20137;-63
2023/06/28 10:21:33;;;;;;;28.93;18.37;;;;;;;;;;4970547;28;20528;-63
2023/06/28 10:24:00;;;;;;;28.23;18.37;;;;;;;;;;4973399;28;20723;-63
2023/06/28 10:26:27;;;;;;;27.20;17.33;;;;;;;;;;4973098;28;20054;-63
2023/06/28 10:28:54;;;;;;;23.00;17.23;;;;;;;;;;4972915;28;20082;-62
2023/06/28 10:31:20;;;;;;;22.57;17.17;;;;;;;;;;4973105;28;20081;-63
2023/06/28 10:33:46;;;;;;;26.30;17.93;;;;;;;;;;4972473;28;20465;-62
2023/06/28 10:36:13;;;;;;;22.50;16.73;;;;;;;;;;4972909;28;20039;-63
2023/06/28 10:38:46;;;;;;;23.60;17.40;;;;;;;;;;4972701;28;20050;-62
2023/06/28 10:41:19;;;;;;;22.35;17.08;;;;;;;;;;4972741;28;20047;-62
2023/06/28 10:43:45;;;;;;;;;;;;;;;;;;4973272;28;20054;-62
2023/06/28 10:46:24;;;;;;;18.30;14.70;;;;;;;;;;4972055;28;20422;-62
2023/06/28 10:48:57;;;;;;;18.87;15.77;;;;;;;;;;4972697;28;20110;-62
2023/06/28 10:51:27;;;;;;;21.83;16.53;;;;;;;;;;4972689;28;20047;-62
2023/06/28 10:53:55;;;;;;;22.57;16.03;;;;;;;;;;4972377;28;20476;-62
2023/06/28 10:56:21;;;;;;;24.33;16.70;;;;;;;;;;4972151;28;20105;-61
2023/06/28 10:58:47;;;;;;;19.80;15.30;;;;;;;;;;4972522;28;20059;-62
2023/06/28 11:01:31;;;;;;;20.30;15.03;;;;;;;;;;4971427;28;20133;-62
2023/06/28 11:03:57;;;;;;;;;;;;;;;;;;4972526;28;20051;-62
2023/06/28 11:06:28;;;;;;;22.17;15.20;;;;;;;;;;4972700;28;19928;-61
2023/06/28 11:08:54;;;;;;;22.33;15.93;;;;;;;;;;4972474;28;20055;-61
2023/06/28 11:11:34;;;;;;;22.13;15.93;;;;;;;;;;4972256;28;20412;-61
2023/06/28 11:14:16;;;;;;;20.20;16.33;;;;;;;;;;4972490;28;20077;-61
2023/06/28 11:16:42;;;;;;;18.83;16.93;;;;;;;;;;4971697;28;20058;-61
2023/06/28 11:19:13;;;;;;;23.43;17.40;;;;;;;;;;4972314;28;20050;-61
2023/06/28 11:21:40;;;;;;;22.10;16.27;;;;;;;;;;4972263;28;20114;-61
2023/06/28 11:24:06;;;;;;;25.33;18.10;;;;;;;;;;4971513;28;20061;-61
2023/06/28 11:26:34;;;;;;;23.17;17.70;;;;;;;;;;4971975;28;20137;-61
2023/06/28 11:29:00;;;;;;;21.47;17.47;;;;;;;;;;4972218;28;21494;-61
2023/06/28 11:31:37;;;;;;;24.43;19.27;;;;;;;;;;4971786;28;20047;-61
2023/06/28 11:34:03;;;;;;;20.03;17.73;;;;;;;;;;4971412;28;20066;-61
2023/06/28 11:36:30;;;;;;;26.83;18.70;;;;;;;;;;4971986;28;20134;-61
2023/06/28 11:38:56;;;;;;;22.43;17.53;;;;;;;;;;4971630;28;20054;-61
2023/06/28 11:41:22;;;;;;;24.77;18.50;;;;;;;;;;4971775;28;20059;-61
2023/06/28 11:43:48;;;;;;;26.37;18.47;;;;;;;;;;4971213;28;20180;-61
2023/06/28 11:46:22;;;;;;;24.40;19.87;;;;;;;;;;4971654;28;20163;-61
2023/06/28 11:48:51;;;;;;;23.00;18.90;;;;;;;;;;4971667;28;20194;-61
2023/06/28 11:51:17;;;;;;;24.50;18.50;;;;;;;;;;4971357;28;20536;-61
2023/06/28 11:53:48;;;;;;;26.50;19.90;;;;;;;;;;4971371;28;20046;-61
2023/06/28 11:56:14;;;;;;;23.53;18.70;;;;;;;;;;4971449;28;20407;-61
2023/06/28 11:58:40;;;;;;;23.83;19.00;;;;;;;;;;4971297;28;20046;-60
2023/06/28 12:01:18;;;;;;;29.13;19.47;;;;;;;;;;4971169;28;20043;-61
2023/06/28 12:03:45;;;;;;;27.47;19.43;;;;;;;;;;4971689;28;20054;-60
2023/06/28 12:06:11;;;;;;;29.27;18.93;;;;;;;;;;4971455;28;20089;-61
2023/06/28 12:08:39;;;;;;;27.47;17.43;;;;;;;;;;4971182;28;20841;-61
2023/06/28 12:11:09;;;;;;;26.03;18.10;;;;;;;;;;4971566;28;20089;-60
2023/06/28 12:13:35;;;;;;;30.93;18.53;;;;;;;;;;4970832;28;20043;-60
2023/06/28 12:16:12;;;;;;;25.53;17.30;;;;;;;;;;4971090;28;20588;-60
2023/06/28 12:18:57;;;;;;;23.93;16.83;;;;;;;;;;4971161;28;20061;-61
2023/06/28 12:21:27;;;;;;;24.87;18.83;;;;;;;;;;4970557;28;20418;-61
2023/06/28 12:23:53;;;;;;;30.37;16.67;;;;;;;;;;4970951;28;20142;-61
2023/06/28 12:26:22;;;;;;;23.67;16.23;;;;;;;;;;4971109;28;20047;-61
2023/06/28 12:28:49;;;;;;;23.27;15.13;;;;;;;;;;4970398;28;20423;-61
2023/06/28 12:31:15;;;;;;;30.77;17.27;;;;;;;;;;4970654;28;20104;-61
2023/06/28 12:33:41;;;;;;;26.53;16.83;;;;;;;;;;4970399;28;20053;-61
2023/06/28 12:36:13;;;;;;;33.13;17.37;;;;;;;;;;4970178;28;20038;-61
2023/06/28 12:38:45;;;;;;;25.77;16.40;;;;;;;;;;4970592;28;20055;-61
2023/06/28 12:41:15;;;;;;;25.40;17.38;;;;;;;;;;4970827;28;20134;-62
2023/06/28 12:43:41;;;;;;;27.33;16.83;;;;;;;;;;4970338;28;20042;-61
2023/06/28 12:46:07;;;;;;;30.13;16.90;;;;;;;;;;4970523;28;20509;-62
2023/06/28 12:48:33;;;;;;;28.53;16.50;;;;;;;;;;4969991;28;20133;-61
2023/06/28 12:51:00;;;;;;;25.43;16.57;;;;;;;;;;4970417;28;20505;-61
2023/06/28 12:53:26;;;;;;;25.17;16.57;;;;;;;;;;4970464;28;20106;-61
2023/06/28 12:55:52;;;;;;;26.47;16.40;;;;;;;;;;4970337;28;20047;-61
2023/06/28 12:58:18;;;;;;;19.97;15.20;;;;;;;;;;4969560;28;20047;-61
2023/06/28 13:00:44;;;;;;;25.00;17.00;;;;;;;;;;4970456;28;20068;-61
2023/06/28 13:03:12;;;;;;;25.87;17.73;;;;;;;;;;4970338;28;20050;-61
2023/06/28 13:05:39;;;;;;;22.67;15.10;;;;;;;;;;4970047;28;20058;-61
2023/06/28 13:08:05;;;;;;;21.40;16.17;;;;;;;;;;4969593;28;20531;-61
2023/06/28 13:10:31;;;;;;;28.17;17.33;;;;;;;;;;4970207;28;20055;-61
2023/06/28 13:12:57;;;;;;;25.37;16.50;;;;;;;;;;4970121;28;20552;-61
2023/06/28 13:15:23;;;;;;;21.93;15.10;;;;;;;;;;4969877;28;20046;-61
2023/06/28 13:17:49;;;;;;;27.53;15.67;;;;;;;;;;4970009;28;20046;-61
2023/06/28 13:20:15;;;;;;;23.83;16.30;;;;;;;;;;4969906;28;20082;-61
2023/06/28 13:22:41;;;;;;;25.53;15.47;;;;;;;;;;4970061;28;20137;-61
2023/06/28 13:25:07;;;;;;;26.07;15.90;;;;;;;;;;4969650;28;20557;-61
2023/06/28 13:27:33;;;;;;;23.90;16.27;;;;;;;;;;4969550;28;20051;-61
2023/06/28 13:29:59;;;;;;;25.23;15.37;;;;;;;;;;4970081;28;20053;-61
2023/06/28 13:32:25;;;;;;;21.53;15.40;;;;;;;;;;4969939;28;20057;-61
2023/06/28 13:34:51;;;;;;;28.33;15.77;;;;;;;;;;4969351;28;20050;-61
2023/06/28 13:37:17;;;;;;;24.43;15.30;;;;;;;;;;4969301;28;20109;-62
2023/06/28 13:39:43;;;;;;;25.27;16.17;;;;;;;;;;4969484;28;20444;-61
2023/06/28 13:42:09;;;;;;;21.93;16.80;;;;;;;;;;4969648;28;20043;-61
2023/06/28 13:44:35;;;;;;;26.83;16.17;;;;;;;;;;4952109;28;20066;-61
2023/06/28 13:47:01;;;;;;;27.90;16.13;;;;;;;;;;4969484;28;20093;-60
2023/06/28 13:49:29;;;;;;;25.63;15.63;;;;;;;;;;4969264;28;20078;-60
2023/06/28 13:51:55;;;;;;;27.10;15.67;;;;;;;;;;4969416;28;20086;-61
2023/06/28 13:54:22;;;;;;;27.03;15.73;;;;;;;;;;4969419;28;20039;-61
2023/06/28 13:56:48;;;;;;;27.80;15.97;;;;;;;;;;4968452;28;20472;-61
2023/06/28 13:59:14;;;;;;;23.37;14.60;;;;;;;;;;4969357;28;20085;-60
2023/06/28 14:01:40;;;;;;;22.93;13.87;;;;;;;;;;4969197;28;20090;-61
2023/06/28 14:04:06;;;;;;;26.40;14.90;;;;;;;;;;4969167;28;20050;-61
2023/06/28 14:06:32;;;;;;;24.23;14.20;;;;;;;;;;4969406;28;20113;-61
2023/06/28 14:08:58;;;;;;;26.53;15.47;;;;;;;;;;4969111;28;20061;-61
2023/06/28 14:11:24;;;;;;;19.67;14.87;;;;;;;;;;4969035;28;20497;-61
2023/06/28 14:13:50;;;;;;;31.23;14.20;;;;;;;;;;4969438;28;20047;-61
2023/06/28 14:16:16;;;;;;;22.80;15.33;;;;;;;;;;4968800;28;20401;-61
2023/06/28 14:18:41;;;;;;;25.83;15.77;;;;;;;;;;4968700;28;20054;-61
2023/06/28 14:21:07;;;;;;;26.10;15.60;;;;;;;;;;4969009;28;20042;-61